Time;durP1;ratioP1;P1;durP2;ratioP2;P2;SDS_P1;SDS_P2;PMS_P1;PMS_P2;Temp;Humidity;BMP_temperature;BMP_pressure;BME280_temperature;BME280_humidity;BME280_pressure;Samples;Min_cycle;Max_cycle;Signal;HPM_P1;HPM_P2
2022/04/10 00:00:36;;;;;;;3.80;2.35;;;18.10;40.20;;;;;;5036251;28;20195;-68
2022/04/10 00:03:03;;;;;;;4.13;2.25;;;18.00;40.10;;;;;;5054041;28;20202;-68
2022/04/10 00:05:30;;;;;;;3.28;2.10;;;18.00;40.10;;;;;;5036278;28;20195;-67
2022/04/10 00:07:58;;;;;;;3.55;2.50;;;18.00;40.30;;;;;;5036296;28;20238;-68
2022/04/10 00:10:25;;;;;;;2.75;2.40;;;18.00;40.40;;;;;;5036010;28;20261;-69
2022/04/10 00:12:52;;;;;;;3.58;2.25;;;17.90;40.30;;;;;;5053795;28;20298;-68
2022/04/10 00:15:20;;;;;;;3.33;2.30;;;17.90;40.20;;;;;;5035931;28;20206;-68
2022/04/10 00:17:47;;;;;;;2.30;2.05;;;17.90;40.20;;;;;;5035982;28;20205;-68
2022/04/10 00:20:14;;;;;;;3.92;2.35;;;18.00;40.40;;;;;;5035915;28;20195;-68
2022/04/10 00:22:41;;;;;;;3.28;2.33;;;17.90;40.50;;;;;;5035822;28;20211;-67
2022/04/10 00:25:10;;;;;;;3.25;2.40;;;17.90;40.40;;;;;;5035808;28;20290;-67
2022/04/10 00:27:37;;;;;;;3.75;2.20;;;17.80;40.20;;;;;;5035692;28;20195;-67
2022/04/10 00:30:05;;;;;;;2.55;2.05;;;17.80;40.40;;;;;;5035899;28;20687;-68
2022/04/10 00:32:33;;;;;;;4.28;2.25;;;17.80;40.40;;;;;;5035908;28;20235;-68
2022/04/10 00:34:59;;;;;;;3.05;2.20;;;17.80;40.40;;;;;;5053660;28;20188;-67
2022/04/10 00:37:27;;;;;;;3.38;2.40;;;17.80;40.50;;;;;;5035080;28;20205;-68
2022/04/10 00:39:54;;;;;;;4.10;2.45;;;17.80;40.40;;;;;;5035733;28;20199;-66
2022/04/10 00:42:23;;;;;;;3.72;2.35;;;17.70;40.40;;;;;;5036277;28;20222;-68
2022/04/10 00:44:50;;;;;;;2.60;2.00;;;17.70;40.50;;;;;;5053490;28;20232;-68
2022/04/10 00:47:17;;;;;;;3.50;2.22;;;17.70;40.60;;;;;;5052267;28;20199;-68
2022/04/10 00:49:44;;;;;;;3.05;2.03;;;17.70;40.60;;;;;;5035593;28;20223;-67
2022/04/10 00:52:11;;;;;;;3.13;2.10;;;17.70;40.60;;;;;;5035434;28;20222;-67
2022/04/10 00:54:38;;;;;;;2.50;2.30;;;17.70;40.70;;;;;;5035430;28;20245;-67
2022/04/10 00:57:06;;;;;;;3.25;2.00;;;17.60;40.60;;;;;;5053576;28;20217;-68
2022/04/10 00:59:35;;;;;;;2.85;2.20;;;17.60;40.60;;;;;;5035761;28;20219;-68
2022/04/10 01:02:02;;;;;;;2.50;1.95;;;17.60;40.70;;;;;;5035439;28;20281;-67
2022/04/10 01:04:29;;;;;;;1.92;1.75;;;17.60;40.70;;;;;;5035409;28;20191;-67
2022/04/10 01:06:57;;;;;;;2.00;1.88;;;17.50;40.60;;;;;;5035339;28;20295;-67
2022/04/10 01:09:25;;;;;;;2.35;1.95;;;17.50;40.70;;;;;;5051876;28;20192;-68
2022/04/10 01:11:53;;;;;;;2.97;2.20;;;17.50;40.80;;;;;;5035156;28;20223;-68
2022/04/10 01:14:21;;;;;;;2.22;2.03;;;17.50;40.80;;;;;;5035434;28;20308;-67
2022/04/10 01:16:49;;;;;;;1.90;1.70;;;17.50;40.80;;;;;;5035356;28;20263;-68
2022/04/10 01:19:17;;;;;;;2.58;2.05;;;17.50;40.80;;;;;;5035329;28;20218;-67
2022/04/10 01:21:48;;;;;;;2.20;2.00;;;17.50;40.80;;;;;;5035398;28;20219;-67
2022/04/10 01:24:17;;;;;;;3.35;2.10;;;17.40;40.70;;;;;;5035259;28;20230;-68
2022/04/10 01:26:45;;;;;;;2.88;2.13;;;17.40;40.70;;;;;;5035441;28;20282;-68
2022/04/10 01:29:14;;;;;;;2.10;1.88;;;17.40;40.80;;;;;;5035350;28;20192;-68
2022/04/10 01:31:43;;;;;;;2.83;2.03;;;17.40;40.80;;;;;;5035001;28;20223;-68
2022/04/10 01:34:11;;;;;;;2.10;1.80;;;17.40;40.80;;;;;;5035046;28;20217;-67
2022/04/10 01:36:39;;;;;;;2.78;2.05;;;17.40;40.90;;;;;;5035121;28;20206;-68
2022/04/10 01:39:07;;;;;;;2.70;1.80;;;17.40;40.80;;;;;;5035038;28;20195;-67
2022/04/10 01:41:37;;;;;;;2.10;1.90;;;17.30;40.80;;;;;;5034967;28;20207;-67
2022/04/10 01:44:05;;;;;;;2.03;1.63;;;17.30;40.80;;;;;;5035015;28;20257;-67
2022/04/10 01:46:33;;;;;;;2.75;1.67;;;17.30;40.90;;;;;;5035015;28;20232;-68
2022/04/10 01:49:01;;;;;;;3.05;2.20;;;17.30;41.00;;;;;;5053806;28;20665;-67
2022/04/10 01:51:28;;;;;;;2.17;1.98;;;17.30;41.00;;;;;;5038614;28;20650;-67
2022/04/10 01:53:56;;;;;;;1.80;1.70;;;17.30;41.00;;;;;;5038565;28;20215;-68
2022/04/10 01:56:24;;;;;;;3.47;2.10;;;17.30;41.10;;;;;;5038890;28;20726;-67
2022/04/10 01:58:53;;;;;;;2.25;2.00;;;17.20;41.00;;;;;;5055234;28;20680;-67
2022/04/10 02:01:21;;;;;;;2.30;1.90;;;17.30;41.20;;;;;;5038519;28;20218;-67
2022/04/10 02:03:50;;;;;;;1.95;1.75;;;17.20;41.70;;;;;;5038532;28;20237;-67
2022/04/10 02:09:10;;;;;;;3.65;1.98;;;17.20;41.00;;;;;;5033983;28;20294;-66
2022/04/10 02:11:39;;;;;;;2.35;2.00;;;17.20;41.00;;;;;;5036401;22;20572;-65
2022/04/10 02:14:09;;;;;;;3.00;1.95;;;17.20;41.10;;;;;;5062499;22;20259;-67
2022/04/10 02:16:36;;;;;;;2.90;2.05;;;17.20;41.80;;;;;;5104468;22;20277;-67
2022/04/10 02:19:03;;;;;;;2.25;2.05;;;17.20;41.20;;;;;;5038569;28;20214;-67
2022/04/10 02:21:31;;;;;;;2.67;2.00;;;17.10;41.10;;;;;;5038261;28;20727;-67
2022/04/10 02:23:58;;;;;;;2.03;1.80;;;17.10;41.20;;;;;;5038166;28;20736;-69
2022/04/10 02:26:25;;;;;;;2.42;2.05;;;17.10;41.00;;;;;;5055822;28;20218;-67
2022/04/10 02:28:51;;;;;;;2.65;2.40;;;17.10;41.20;;;;;;5038037;28;20657;-67
2022/04/10 02:31:20;;;;;;;2.20;1.83;;;17.10;41.20;;;;;;5054797;28;20219;-67
2022/04/10 02:33:47;;;;;;;2.28;2.08;;;17.10;41.20;;;;;;5037839;28;20648;-68
2022/04/10 02:36:16;;;;;;;2.67;1.90;;;17.10;41.20;;;;;;5037942;28;20207;-67
2022/04/10 02:38:44;;;;;;;3.42;2.10;;;17.10;41.20;;;;;;5037778;28;20206;-68
2022/04/10 02:41:11;;;;;;;2.28;1.90;;;17.10;41.20;;;;;;5037861;28;20661;-67
2022/04/10 02:43:39;;;;;;;1.95;1.80;;;17.10;41.10;;;;;;5037766;28;20290;-67
2022/04/10 02:46:06;;;;;;;2.97;2.13;;;17.10;41.00;;;;;;5037702;28;20222;-67
2022/04/10 02:48:40;;;;;;;2.80;1.80;;;17.00;40.90;;;;;;5037658;28;20195;-67
2022/04/10 02:51:11;;;;;;;2.40;2.20;;;17.00;41.10;;;;;;5037578;28;20680;-67
2022/04/10 02:53:39;;;;;;;3.03;2.00;;;17.00;41.00;;;;;;5054413;28;20203;-67
2022/04/10 02:56:06;;;;;;;2.60;1.92;;;17.00;41.10;;;;;;5037473;28;20212;-67
2022/04/10 02:58:33;;;;;;;2.85;1.70;;;17.00;41.00;;;;;;5055328;28;20690;-67
2022/04/10 03:01:00;;;;;;;2.53;1.95;;;17.00;41.00;;;;;;5037119;28;20188;-68
2022/04/10 03:03:27;;;;;;;2.08;1.88;;;17.00;41.00;;;;;;5037408;28;20249;-67
2022/04/10 03:05:56;;;;;;;2.03;1.70;;;17.00;40.90;;;;;;5037311;28;20215;-68
2022/04/10 03:08:23;;;;;;;1.80;1.70;;;17.00;41.00;;;;;;5037267;28;20199;-67
2022/04/10 03:10:51;;;;;;;1.75;1.65;;;16.90;41.00;;;;;;5053805;28;20224;-67
2022/04/10 03:13:18;;;;;;;1.83;1.67;;;16.90;40.90;;;;;;5038669;28;20233;-68
2022/04/10 03:15:46;;;;;;;1.98;1.67;;;16.90;41.00;;;;;;5037202;28;20198;-68
2022/04/10 03:18:15;;;;;;;2.10;1.63;;;16.90;41.00;;;;;;5037299;28;20197;-68
2022/04/10 03:20:42;;;;;;;2.22;1.80;;;16.90;41.00;;;;;;5037412;28;20250;-68
2022/04/10 03:23:11;;;;;;;2.20;1.98;;;16.90;41.00;;;;;;5037189;28;20286;-67
2022/04/10 03:25:39;;;;;;;1.92;1.80;;;16.90;41.00;;;;;;5037296;28;20742;-68
2022/04/10 03:28:07;;;;;;;2.05;1.88;;;16.90;41.00;;;;;;5043101;28;20226;-67
2022/04/10 03:30:34;;;;;;;2.05;1.80;;;16.90;41.00;;;;;;5057841;28;20211;-67
2022/04/10 03:33:02;;;;;;;2.10;1.90;;;16.90;40.90;;;;;;5037982;28;20279;-68
2022/04/10 03:35:29;;;;;;;2.55;1.90;;;16.90;40.90;;;;;;5037002;28;20203;-67
2022/04/10 03:37:59;;;;;;;1.83;1.73;;;16.80;41.00;;;;;;5036913;28;20231;-67
2022/04/10 03:40:27;;;;;;;2.40;1.90;;;16.90;40.80;;;;;;5036957;28;20587;-67
2022/04/10 03:42:55;;;;;;;1.77;1.67;;;16.90;40.80;;;;;;5053288;28;20214;-67
2022/04/10 03:45:23;;;;;;;1.92;1.73;;;16.90;40.80;;;;;;5036675;28;20207;-67
2022/04/10 03:47:51;;;;;;;2.65;1.80;;;16.90;40.80;;;;;;5037135;28;20219;-68
2022/04/10 03:50:18;;;;;;;1.73;1.60;;;16.90;40.80;;;;;;5036771;28;20677;-67
2022/04/10 03:52:45;;;;;;;2.10;1.80;;;16.90;40.80;;;;;;5036623;28;20240;-67
2022/04/10 03:55:12;;;;;;;1.98;1.80;;;16.90;40.80;;;;;;5036450;28;20249;-67
2022/04/10 03:57:40;;;;;;;2.03;1.70;;;16.90;40.80;;;;;;5036236;28;20592;-67
2022/04/10 04:00:09;;;;;;;1.73;1.60;;;16.90;40.70;;;;;;5036475;28;20192;-69
2022/04/10 04:02:42;;;;;;;2.10;1.70;;;16.90;40.70;;;;;;5054144;28;20180;-67
2022/04/10 04:05:12;;;;;;;2.53;1.85;;;16.90;40.80;;;;;;5036535;28;20661;-67
2022/04/10 04:07:39;;;;;;;2.08;1.80;;;16.90;40.60;;;;;;5052868;28;20222;-67
2022/04/10 04:10:07;;;;;;;1.88;1.70;;;16.90;40.60;;;;;;5036234;28;20199;-67
2022/04/10 04:12:36;;;;;;;1.75;1.65;;;16.90;40.60;;;;;;5035716;28;20199;-67
2022/04/10 04:15:06;;;;;;;1.75;1.65;;;16.90;40.60;;;;;;5036408;28;20218;-67
2022/04/10 04:17:33;;;;;;;1.75;1.65;;;16.90;40.60;;;;;;5036390;28;20223;-67
2022/04/10 04:20:03;;;;;;;1.75;1.63;;;16.90;40.60;;;;;;5055136;28;20251;-68
2022/04/10 04:22:32;;;;;;;1.80;1.70;;;17.00;40.30;;;;;;5038575;28;20188;-67
2022/04/10 04:24:58;;;;;;;1.98;1.77;;;17.00;40.40;;;;;;5038389;28;20222;-68
2022/04/10 04:27:27;;;;;;;2.17;1.73;;;17.00;40.60;;;;;;5035793;28;20226;-68
2022/04/10 04:29:54;;;;;;;1.65;1.55;;;17.00;40.40;;;;;;5035838;28;20223;-68
2022/04/10 04:32:22;;;;;;;1.70;1.60;;;17.00;40.40;;;;;;5053596;28;20211;-68
2022/04/10 04:34:49;;;;;;;2.00;1.90;;;17.00;40.40;;;;;;5035765;28;20750;-68
2022/04/10 04:37:16;;;;;;;2.80;1.67;;;17.00;40.40;;;;;;5035553;28;20216;-67
2022/04/10 04:39:44;;;;;;;1.92;1.80;;;17.00;40.40;;;;;;5035688;28;20203;-67
2022/04/10 04:42:11;;;;;;;1.95;1.73;;;17.10;40.40;;;;;;5035683;28;20275;-67
2022/04/10 04:44:38;;;;;;;1.88;1.70;;;17.10;40.20;;;;;;5035676;28;20203;-67
2022/04/10 04:47:07;;;;;;;1.88;1.70;;;17.10;40.20;;;;;;5035597;28;20220;-68
2022/04/10 04:49:35;;;;;;;2.53;1.67;;;17.20;40.20;;;;;;5035572;28;20196;-67
2022/04/10 04:52:03;;;;;;;1.88;1.70;;;17.20;40.20;;;;;;5035522;28;20588;-67
2022/04/10 04:54:30;;;;;;;1.85;1.67;;;17.20;40.00;;;;;;5035537;28;20217;-67
2022/04/10 04:56:57;;;;;;;2.13;1.92;;;17.30;40.00;;;;;;5035526;28;20219;-67
2022/04/10 04:59:29;;;;;;;2.28;1.70;;;17.30;40.00;;;;;;5035572;28;20563;-67
2022/04/10 05:01:57;;;;;;;1.90;1.60;;;17.30;39.80;;;;;;5035582;28;20668;-68
2022/04/10 05:04:25;;;;;;;1.92;1.70;;;17.30;40.00;;;;;;5035415;28;20698;-67
2022/04/10 05:06:54;;;;;;;1.80;1.70;;;17.30;40.00;;;;;;5035258;28;20219;-67
2022/04/10 05:09:22;;;;;;;1.83;1.70;;;17.30;40.10;;;;;;5035442;28;20202;-67
2022/04/10 05:11:49;;;;;;;2.13;1.90;;;17.30;39.90;;;;;;5035509;28;20230;-67
2022/04/10 05:14:17;;;;;;;1.70;1.60;;;17.30;39.70;;;;;;5035445;28;20219;-67
2022/04/10 05:16:44;;;;;;;1.60;1.50;;;17.40;39.90;;;;;;5035222;28;20238;-67
2022/04/10 05:19:11;;;;;;;1.70;1.60;;;17.40;39.90;;;;;;5035369;28;20668;-67
2022/04/10 05:21:40;;;;;;;1.70;1.60;;;17.40;39.90;;;;;;5052038;28;20571;-67
2022/04/10 05:24:08;;;;;;;1.85;1.75;;;17.40;39.90;;;;;;5037418;28;20191;-67
2022/04/10 05:26:35;;;;;;;2.00;1.67;;;17.40;39.70;;;;;;5039223;28;20658;-67
2022/04/10 05:29:04;;;;;;;2.10;1.80;;;17.40;39.70;;;;;;5039426;28;20206;-67
2022/04/10 05:31:32;;;;;;;2.03;1.48;;;17.50;39.70;;;;;;5039733;28;20212;-67
2022/04/10 05:33:59;;;;;;;1.70;1.60;;;17.50;39.70;;;;;;5039083;28;20219;-68
2022/04/10 05:36:26;;;;;;;1.70;1.60;;;17.50;39.70;;;;;;5038904;28;20222;-67
2022/04/10 05:38:53;;;;;;;2.00;1.80;;;17.50;39.70;;;;;;5038875;28;20253;-67
2022/04/10 05:41:25;;;;;;;2.05;1.85;;;17.60;39.60;;;;;;5055698;28;20279;-67
2022/04/10 05:43:58;;;;;;;1.65;1.50;;;17.60;39.60;;;;;;5039255;28;20663;-67
2022/04/10 05:46:25;;;;;;;2.15;1.55;;;17.70;39.60;;;;;;5038704;28;20222;-67
2022/04/10 05:48:56;;;;;;;2.63;1.63;;;17.70;39.40;;;;;;5038688;28;20266;-67
2022/04/10 05:51:25;;;;;;;2.33;1.65;;;17.70;39.40;;;;;;5038639;28;20223;-67
2022/04/10 05:53:52;;;;;;;1.80;1.70;;;17.70;39.40;;;;;;5038747;28;20199;-67
2022/04/10 05:56:19;;;;;;;1.80;1.70;;;17.70;39.30;;;;;;5038571;28;20222;-67
2022/04/10 05:58:51;;;;;;;2.13;1.58;;;17.80;39.30;;;;;;5038604;28;20195;-68
2022/04/10 06:01:18;;;;;;;2.15;1.63;;;17.90;39.10;;;;;;5038776;28;20195;-66
2022/04/10 06:03:47;;;;;;;1.70;1.60;;;17.90;39.10;;;;;;5038657;28;20732;-67
2022/04/10 06:06:17;;;;;;;1.77;1.67;;;18.00;39.00;;;;;;5038425;28;20247;-67
2022/04/10 06:08:48;;;;;;;1.83;1.73;;;18.00;38.90;;;;;;5055614;28;20200;-67
2022/04/10 06:11:16;;;;;;;1.77;1.65;;;18.10;39.00;;;;;;5038437;28;20215;-67
2022/04/10 06:13:44;;;;;;;1.67;1.58;;;18.20;38.90;;;;;;5038442;28;20191;-67
2022/04/10 06:16:16;;;;;;;2.67;1.73;;;18.40;38.50;;;;;;5038196;28;20704;-68
2022/04/10 06:18:46;;;;;;;1.70;1.60;;;18.70;38.10;;;;;;5055039;28;20191;-67
2022/04/10 06:21:13;;;;;;;2.13;1.60;;;19.00;37.80;;;;;;5038236;28;20199;-67
2022/04/10 06:23:42;;;;;;;2.00;1.80;;;19.10;37.40;;;;;;5038060;28;20199;-67
2022/04/10 06:26:25;;;;;;;1.70;1.60;;;19.20;37.70;;;;;;5038699;28;20690;-67
2022/04/10 06:31:41;;;;;;;1.70;1.60;;;19.20;37.00;;;;;;3935441;22;20330;-66
2022/04/10 06:34:08;;;;;;;2.13;1.92;;;19.20;36.90;;;;;;5054118;22;20319;-62
2022/04/10 06:36:36;;;;;;;1.92;1.83;;;19.20;36.90;;;;;;5017595;28;20251;-61
2022/04/10 06:39:04;;;;;;;1.92;1.83;;;19.20;36.90;;;;;;5017921;28;20286;-62
2022/04/10 06:41:33;;;;;;;2.10;1.98;;;19.20;37.40;;;;;;5034557;28;20246;-62
2022/04/10 06:44:06;;;;;;;1.80;1.70;;;19.20;36.60;;;;;;5018070;28;20719;-61
2022/04/10 06:46:46;;;;;;;1.80;1.70;;;19.30;36.60;;;;;;5018305;28;20326;-62
2022/04/10 06:49:20;;;;;;;2.47;2.15;;;19.30;36.60;;;;;;5034269;28;20188;-62
2022/04/10 06:51:47;;;;;;;2.42;2.00;;;19.40;36.50;;;;;;5017715;28;20227;-61
2022/04/10 06:54:21;;;;;;;1.80;1.70;;;19.40;36.20;;;;;;5017984;28;20216;-62
2022/04/10 06:56:49;;;;;;;2.00;1.90;;;19.40;36.20;;;;;;5034067;28;20204;-62
2022/04/10 07:04:36;;;;;;;2.03;1.92;;;19.50;36.30;;;;;;1514324;22;20586;-62
2022/04/10 07:07:05;;;;;;;1.73;1.63;;;19.50;36.30;;;;;;5037287;28;20674;-62
2022/04/10 07:09:32;;;;;;;2.00;1.90;;;19.50;36.30;;;;;;5037181;28;20667;-62
2022/04/10 07:12:00;;;;;;;2.20;1.90;;;19.50;36.30;;;;;;5037045;28;20211;-62
2022/04/10 07:14:36;;;;;;;1.90;1.80;;;19.50;36.10;;;;;;5036891;28;20688;-62
2022/04/10 07:17:05;;;;;;;1.90;1.80;;;19.60;36.20;;;;;;5037049;28;20286;-62
2022/04/10 07:19:32;;;;;;;2.75;2.10;;;19.50;35.90;;;;;;5055360;22;20679;-80
2022/04/10 07:24:47;;;;;;;1.85;1.75;;;19.60;36.00;;;;;;5038038;28;20233;-81
2022/04/10 07:27:14;;;;;;;1.98;1.70;;;19.70;35.90;;;;;;5037642;28;20219;-80
2022/04/10 07:30:07;;;;;;;3.13;1.80;;;19.70;35.90;;;;;;5037397;28;20279;-81
2022/04/10 07:32:37;;;;;;;1.70;1.60;;;19.80;35.80;;;;;;5037567;28;20635;-80
2022/04/10 07:35:12;;;;;;;1.95;1.85;;;19.80;35.70;;;;;;5037489;28;20214;-81
2022/04/10 07:37:53;;;;;;;2.88;1.95;;;19.90;35.70;;;;;;5037367;28;20210;-81
2022/04/10 07:40:22;;;;;;;2.75;1.80;;;19.90;35.50;;;;;;5037160;28;20219;-81
2022/04/10 07:42:49;;;;;;;2.50;1.88;;;19.90;35.40;;;;;;5036920;28;20207;-80
2022/04/10 07:48:23;;;;;;;2.25;1.90;;;20.00;35.20;;;;;;5037075;28;20191;-80
2022/04/10 07:50:50;;;;;;;2.00;1.80;;;20.00;35.30;;;;;;5053742;28;20199;-80
2022/04/10 07:53:22;;;;;;;2.60;1.90;;;20.10;35.40;;;;;;5037780;28;20226;-80
2022/04/10 07:55:56;;;;;;;1.80;1.70;;;20.10;35.60;;;;;;5037648;28;20187;-80
2022/04/10 07:58:24;;;;;;;1.67;1.55;;;20.20;35.00;;;;;;5038024;28;20571;-80
2022/04/10 08:00:51;;;;;;;1.80;1.70;;;20.20;35.00;;;;;;5036949;28;20195;-80
2022/04/10 08:03:18;;;;;;;1.77;1.67;;;20.30;34.90;;;;;;5037021;28;20290;-80
2022/04/10 08:05:51;;;;;;;1.95;1.70;;;20.40;34.80;;;;;;5054996;28;20175;-80
2022/04/10 08:08:41;;;;;;;1.80;1.70;;;20.40;34.70;;;;;;5037627;28;20200;-80
2022/04/10 08:11:09;;;;;;;1.80;1.70;;;20.40;34.60;;;;;;5057108;28;20191;-80
2022/04/10 08:13:36;;;;;;;1.92;1.75;;;20.50;34.70;;;;;;5037011;28;20277;-80
2022/04/10 08:16:03;;;;;;;2.00;1.65;;;20.50;34.70;;;;;;5036665;28;20196;-80
2022/04/10 08:18:30;;;;;;;2.55;2.00;;;20.50;35.00;;;;;;5036513;28;20200;-81
2022/04/10 08:20:58;;;;;;;1.80;1.70;;;20.50;34.90;;;;;;5057245;28;20195;-81
2022/04/10 08:23:25;;;;;;;1.90;1.80;;;20.60;35.00;;;;;;5037244;28;20229;-79
2022/04/10 08:25:53;;;;;;;3.00;2.17;;;20.60;35.20;;;;;;5037532;28;20263;-79
2022/04/10 08:28:21;;;;;;;2.50;1.60;;;20.70;35.70;;;;;;5055733;28;20199;-79
2022/04/10 08:30:48;;;;;;;1.70;1.60;;;20.70;35.60;;;;;;5037836;28;20207;-79
2022/04/10 08:33:15;;;;;;;2.58;1.73;;;20.80;35.50;;;;;;5077209;22;20217;-66
2022/04/10 08:35:41;;;;;;;2.03;1.80;;;20.80;36.20;;;;;;5054095;28;20231;-68
2022/04/10 08:38:09;;;;;;;2.53;1.77;;;20.80;36.10;;;;;;5053257;28;20808;-67
2022/04/10 08:40:35;;;;;;;29.05;14.10;;;20.80;36.20;;;;;;5070910;22;20201;-68
2022/04/10 09:05:27;;;;;;;30.20;11.40;;;20.90;36.90;;;;;;3362554;26;20310;-47
2022/04/10 09:08:08;;;;;;;29.02;12.00;;;21.00;36.50;;;;;;5015819;28;20196;-48
2022/04/10 09:10:53;;;;;;;26.95;11.05;;;21.00;36.40;;;;;;5157532;22;20214;-67
2022/04/10 09:21:38;;;;;;;21.08;9.25;;;21.10;35.60;;;;;;5012260;28;20211;-64
2022/04/10 09:24:30;;;;;;;17.95;7.97;;;21.20;36.20;;;;;;5013477;28;20223;-64
2022/04/10 09:27:30;;;;;;;21.75;9.73;;;21.20;35.30;;;;;;5014264;28;20680;-64
2022/04/10 09:35:25;;;;;;;20.92;7.95;;;21.20;35.50;;;;;;5058810;22;20231;-67
2022/04/10 09:40:52;;;;;;;17.40;7.03;;;21.20;35.60;;;;;;5032778;28;20665;-70
2022/04/10 09:43:19;;;;;;;20.15;7.05;;;21.20;35.60;;;;;;5108609;22;20628;-64
2022/04/10 09:45:46;;;;;;;18.05;6.85;;;21.20;35.70;;;;;;5054331;22;20231;-66
2022/04/10 09:48:21;;;;;;;15.43;6.35;;;21.20;35.50;;;;;;5061715;22;20246;-66
2022/04/10 09:50:48;;;;;;;14.95;6.30;;;21.10;35.60;;;;;;5112110;22;20213;-69
2022/04/10 09:53:16;;;;;;;16.25;6.43;;;21.10;35.70;;;;;;5095758;22;20234;-67
2022/04/10 09:55:43;;;;;;;15.73;6.65;;;21.00;35.50;;;;;;5034344;28;20564;-67
2022/04/10 09:58:11;;;;;;;15.02;6.10;;;21.00;35.50;;;;;;5052146;28;20196;-68
2022/04/10 10:00:40;;;;;;;16.02;6.25;;;20.90;35.80;;;;;;5034535;28;20377;-66
2022/04/10 10:03:08;;;;;;;14.20;5.40;;;21.00;36.70;;;;;;5035114;28;20195;-66
2022/04/10 10:05:35;;;;;;;11.07;5.55;;;21.00;35.80;;;;;;5052981;28;20192;-67
2022/04/10 10:08:02;;;;;;;11.73;5.35;;;21.10;35.80;;;;;;5035237;28;20614;-67
2022/04/10 10:10:32;;;;;;;14.98;5.40;;;21.20;35.60;;;;;;5054025;28;20211;-66
2022/04/10 10:20:54;;;;;;;10.93;5.00;;;21.50;34.80;;;;;;5015322;28;20303;-68
2022/04/10 10:23:22;;;;;;;11.20;4.68;;;21.50;35.40;;;;;;5016680;28;20212;-68
2022/04/10 10:25:55;;;;;;;13.05;4.50;;;21.50;35.20;;;;;;5015065;28;20205;-67
2022/04/10 10:28:55;;;;;;;10.43;4.75;;;21.50;35.20;;;;;;5014998;28;20193;-68
2022/04/10 10:31:44;;;;;;;10.60;4.68;;;21.50;35.10;;;;;;5014960;28;20200;-68
2022/04/10 10:36:47;;;;;;;8.27;4.22;;;21.60;34.90;;;;;;5132114;22;20220;-70
2022/04/10 10:39:14;;;;;;;9.63;4.50;;;21.70;34.60;;;;;;5091160;22;20237;-64
2022/04/10 10:41:44;;;;;;;10.13;4.57;;;21.70;34.30;;;;;;5143256;22;20253;-64
2022/04/10 10:44:39;;;;;;;7.75;3.85;;;21.70;34.10;;;;;;5056210;28;20226;-64
2022/04/10 10:47:07;;;;;;;8.80;3.97;;;21.70;34.10;;;;;;5038616;28;20588;-64
2022/04/10 10:49:43;;;;;;;8.20;4.30;;;21.70;34.30;;;;;;5055895;28;20571;-64
2022/04/10 10:52:11;;;;;;;11.75;3.70;;;21.60;34.20;;;;;;5055861;28;20175;-64
2022/04/10 10:54:44;;;;;;;9.18;4.60;;;21.50;34.40;;;;;;5056263;28;20282;-64
2022/04/10 10:57:30;;;;;;;9.43;4.10;;;21.50;34.60;;;;;;5059481;28;20179;-64
2022/04/10 11:00:06;;;;;;;8.23;3.97;;;21.50;34.60;;;;;;5078537;28;20163;-63
2022/04/10 11:02:34;;;;;;;7.80;3.90;;;21.50;34.50;;;;;;5050312;28;20199;-65
2022/04/10 11:05:02;;;;;;;8.60;3.40;;;21.40;34.40;;;;;;5151519;22;20213;-66
2022/04/10 11:07:29;;;;;;;8.32;3.78;;;21.40;34.30;;;;;;5075087;28;20285;-68
2022/04/10 11:09:58;;;;;;;5.50;3.75;;;21.30;34.40;;;;;;5075151;28;20191;-67
2022/04/10 11:12:33;;;;;;;8.55;3.65;;;21.30;34.40;;;;;;5075160;28;20188;-68
2022/04/10 11:15:04;;;;;;;5.88;3.55;;;21.30;34.10;;;;;;5057478;28;20656;-67
2022/04/10 11:17:31;;;;;;;5.85;3.35;;;21.20;34.40;;;;;;5057544;28;20194;-67
2022/04/10 11:19:59;;;;;;;5.45;3.58;;;21.20;34.40;;;;;;5057111;28;20199;-67
2022/04/10 11:22:31;;;;;;;8.60;3.90;;;21.20;34.50;;;;;;5056645;28;20668;-67
2022/04/10 11:24:59;;;;;;;6.57;3.53;;;21.10;34.60;;;;;;5057220;28;20201;-67
2022/04/10 11:27:48;;;;;;;5.72;3.42;;;21.20;34.70;;;;;;5074735;28;20567;-67
2022/04/10 11:30:16;;;;;;;9.30;3.65;;;21.20;35.30;;;;;;5075175;28;20629;-67
2022/04/10 11:32:48;;;;;;;6.07;3.33;;;21.20;34.70;;;;;;5074744;28;20207;-66
2022/04/10 11:35:17;;;;;;;5.82;3.22;;;21.30;34.30;;;;;;5056821;28;20558;-67
2022/04/10 11:37:47;;;;;;;4.85;3.00;;;21.30;34.00;;;;;;5056779;28;20206;-66
2022/04/10 11:40:15;;;;;;;4.70;3.00;;;21.30;34.10;;;;;;5057352;28;20205;-67
2022/04/10 11:42:43;;;;;;;5.50;2.85;;;21.30;34.30;;;;;;5057626;28;20191;-67
2022/04/10 11:45:12;;;;;;;6.22;3.45;;;21.30;34.10;;;;;;5056834;28;20744;-67
2022/04/10 11:47:41;;;;;;;4.13;2.83;;;21.30;34.20;;;;;;5056862;28;20191;-67
2022/04/10 11:52:59;;;;;;;5.88;3.10;;;21.20;34.10;;;;;;5073196;28;20275;-69
2022/04/10 11:55:30;;;;;;;4.63;2.83;;;21.20;34.30;;;;;;5051482;28;20215;-69
2022/04/10 11:57:58;;;;;;;4.70;2.63;;;21.30;34.10;;;;;;5037206;28;20206;-70
2022/04/10 12:00:46;;;;;;;5.07;2.92;;;21.30;34.20;;;;;;5051535;28;20229;-68
2022/04/10 12:03:14;;;;;;;4.55;2.75;;;21.30;34.40;;;;;;5036293;28;20191;-68
2022/04/10 12:05:41;;;;;;;4.18;2.70;;;21.30;34.50;;;;;;5150761;22;20202;-67
2022/04/10 12:10:56;;;;;;;4.03;2.60;;;21.30;34.50;;;;;;5099263;22;20527;-85
2022/04/10 12:16:11;;;;;;;3.50;2.42;;;21.30;33.80;;;;;;5120643;22;20294;-65
2022/04/10 12:18:47;;;;;;;3.55;2.22;;;21.30;34.10;;;;;;5068583;23;20256;-70
2022/04/10 12:26:42;;;;;;;5.68;2.60;;;21.30;34.30;;;;;;5094558;28;20231;-50
2022/04/10 12:29:10;;;;;;;4.40;2.63;;;21.30;34.60;;;;;;5096430;28;20282;-50
2022/04/10 12:31:41;;;;;;;5.43;2.70;;;21.20;34.50;;;;;;5062332;28;20218;-50
2022/04/10 12:34:11;;;;;;;3.75;2.55;;;21.20;34.70;;;;;;5076402;28;20198;-50
2022/04/10 12:36:45;;;;;;;6.53;2.95;;;21.20;35.00;;;;;;5170115;23;20255;-69
2022/04/10 12:42:09;;;;;;;5.20;2.60;;;21.20;35.30;;;;;;5131806;22;20230;-68
2022/04/10 12:47:39;;;;;;;3.92;2.45;;;21.20;35.00;;;;;;5154941;22;20262;-71
2022/04/10 12:50:51;;;;;;;3.15;2.20;;;21.20;34.60;;;;;;5127307;22;20384;-82
2022/04/10 12:56:20;;;;;;;4.63;2.78;;;21.30;34.50;;;;;;5109166;22;20249;-68
2022/04/10 12:58:49;;;;;;;4.70;2.40;;;21.30;34.50;;;;;;5078781;22;20322;-64
2022/04/10 13:04:02;;;;;;;4.22;2.40;;;21.30;34.20;;;;;;3057363;22;20222;-70
2022/04/10 13:09:12;;;;;;;3.50;2.50;;;21.30;34.20;;;;;;5094966;22;20222;-66
2022/04/10 13:14:18;;;;;;;3.55;2.63;;;21.30;34.20;;;;;;5041602;22;20241;-66
2022/04/10 13:16:47;;;;;;;3.58;2.30;;;21.20;34.00;;;;;;5061060;22;20220;-71
2022/04/10 13:19:15;;;;;;;3.25;2.13;;;21.20;34.10;;;;;;5089908;22;20236;-69
2022/04/10 13:29:50;;;;;;;3.72;2.17;;;21.20;34.10;;;;;;5112187;22;20233;-64
2022/04/10 13:37:43;;;;;;;2.80;2.25;;;21.10;34.50;;;;;;4199605;22;20982;-67
2022/04/10 13:40:11;;;;;;;2.53;2.08;;;21.10;34.40;;;;;;5081764;22;20308;-67
2022/04/10 13:45:20;;;;;;;3.88;2.45;;;21.10;34.40;;;;;;1071011;22;20584;-68
2022/04/10 13:47:47;;;;;;;2.90;2.30;;;21.10;34.30;;;;;;5116448;22;20254;-70
2022/04/10 13:52:48;;;;;;;3.80;2.03;;;21.10;34.50;;;;;;5055885;22;20231;-63
2022/04/10 14:00:25;;;;;;;3.08;2.33;;;21.20;34.10;;;;;;5101544;22;20256;-69
2022/04/10 14:05:27;;;;;;;2.75;2.10;;;21.20;33.90;;;;;;4873834;22;20238;-65
2022/04/10 14:07:56;;;;;;;2.95;2.13;;;21.10;33.80;;;;;;5056322;28;20214;-65
2022/04/10 14:10:23;;;;;;;3.22;1.98;;;21.10;33.70;;;;;;5038419;28;20196;-65
2022/04/10 14:12:50;;;;;;;2.17;1.98;;;21.10;33.70;;;;;;5174116;22;20611;-71
2022/04/10 14:18:00;;;;;;;2.55;2.15;;;21.10;33.70;;;;;;4492182;22;20494;-66
2022/04/10 14:20:28;;;;;;;2.15;1.90;;;21.20;33.70;;;;;;5184392;22;20223;-65
2022/04/10 14:22:57;;;;;;;2.83;2.08;;;21.20;33.60;;;;;;5056900;28;20211;-64
2022/04/10 14:25:24;;;;;;;2.10;1.90;;;21.20;33.80;;;;;;5038624;28;20199;-68
2022/04/10 14:27:51;;;;;;;2.28;2.00;;;21.10;33.80;;;;;;5056968;28;20282;-67
2022/04/10 14:30:18;;;;;;;2.28;2.00;;;21.20;33.70;;;;;;5056180;22;20235;-71
2022/04/10 14:32:45;;;;;;;2.00;1.80;;;21.10;33.40;;;;;;5080818;22;20223;-69
2022/04/10 14:35:13;;;;;;;2.90;2.25;;;21.10;33.70;;;;;;5082130;22;20325;-67
2022/04/10 14:40:11;;;;;;;2.70;2.03;;;21.00;34.10;;;;;;5103023;22;20243;-67
2022/04/10 14:45:06;;;;;;;3.08;1.90;;;21.00;34.30;;;;;;5079505;22;20285;-69
2022/04/10 14:53:03;;;;;;;2.42;1.88;;;20.90;34.30;;;;;;5186239;22;20298;-68
2022/04/10 14:55:31;;;;;;;2.65;1.88;;;20.90;34.10;;;;;;5125954;22;20235;-68
2022/04/10 14:57:58;;;;;;;3.25;2.13;;;20.90;34.10;;;;;;5124473;22;20231;-65
2022/04/10 15:03:24;;;;;;;2.20;2.00;;;20.90;34.00;;;;;;5114381;22;20300;-71
2022/04/10 15:05:51;;;;;;;2.20;1.90;;;20.90;34.20;;;;;;5183871;22;20267;-67
2022/04/10 15:13:51;;;;;;;2.20;1.80;;;20.90;34.90;;;;;;4568988;22;20234;-69
2022/04/10 15:16:18;;;;;;;4.00;2.08;;;20.80;34.90;;;;;;5076398;22;20222;-70
2022/04/10 15:18:48;;;;;;;3.67;1.95;;;20.90;35.20;;;;;;5068962;22;20219;-66
2022/04/10 15:21:16;;;;;;;5.03;2.42;;;20.90;35.00;;;;;;5037382;28;20191;-66